Time;durP1;ratioP1;P1;durP2;ratioP2;P2;SDS_P1;SDS_P2;PMS_P1;PMS_P2;Temp;Humidity;BMP_temperature;BMP_pressure;BME280_temperature;BME280_humidity;BME280_pressure;Samples;Min_cycle;Max_cycle;Signal;HPM_P1;HPM_P2
2021/08/13 00:00:11;;;;;;;22.48;15.63;;;18.60;99.90;;;;;;4990010;28;25134;-67
2021/08/13 00:03:14;;;;;;;19.50;14.70;;;18.50;99.90;;;;;;4994737;28;25063;-67
2021/08/13 00:05:40;;;;;;;20.15;14.18;;;18.60;99.90;;;;;;5007538;28;25128;-67
2021/08/13 00:08:07;;;;;;;24.38;15.75;;;18.50;99.90;;;;;;5013503;28;25079;-67
2021/08/13 00:10:35;;;;;;;19.23;14.15;;;18.40;99.90;;;;;;5005485;28;25060;-68
2021/08/13 00:13:01;;;;;;;18.48;13.88;;;18.50;99.90;;;;;;4992080;28;25079;-66
2021/08/13 00:15:27;;;;;;;18.95;14.15;;;18.40;99.90;;;;;;4990219;28;25056;-68
2021/08/13 00:17:53;;;;;;;20.48;14.82;;;18.40;99.90;;;;;;4989542;28;25159;-67
2021/08/13 00:20:20;;;;;;;21.08;14.65;;;18.40;99.90;;;;;;4988083;28;25075;-66
2021/08/13 00:22:47;;;;;;;19.42;14.07;;;18.30;99.90;;;;;;4990551;28;25054;-68
2021/08/13 00:25:12;;;;;;;20.73;13.68;;;18.30;99.90;;;;;;4990217;28;25070;-67
2021/08/13 00:27:38;;;;;;;24.95;15.52;;;18.40;99.90;;;;;;5003182;28;25048;-67
2021/08/13 00:30:05;;;;;;;20.65;14.98;;;18.40;99.90;;;;;;4989736;28;25064;-67
2021/08/13 00:32:34;;;;;;;19.23;15.00;;;18.30;99.90;;;;;;4988229;28;25066;-67
2021/08/13 00:34:59;;;;;;;22.77;15.25;;;18.30;99.90;;;;;;5009438;28;25050;-68
2021/08/13 00:37:25;;;;;;;20.30;15.65;;;18.20;99.90;;;;;;4987224;28;25060;-68
2021/08/13 00:39:51;;;;;;;21.75;14.80;;;18.20;99.90;;;;;;4993716;28;25095;-68
2021/08/13 00:42:18;;;;;;;21.05;15.40;;;18.10;99.90;;;;;;4990295;28;25053;-67
2021/08/13 00:44:44;;;;;;;23.45;16.42;;;18.10;99.90;;;;;;4988219;28;25061;-68
2021/08/13 00:47:09;;;;;;;23.08;16.25;;;18.00;99.90;;;;;;4989134;28;25066;-66
2021/08/13 00:49:47;;;;;;;21.20;15.52;;;18.10;99.90;;;;;;4989616;28;25078;-70
2021/08/13 00:52:15;;;;;;;23.67;15.27;;;18.00;99.90;;;;;;4980795;28;25051;-67
2021/08/13 00:54:40;;;;;;;26.98;15.90;;;18.00;99.90;;;;;;4989625;28;25055;-67
2021/08/13 00:57:06;;;;;;;20.85;15.75;;;17.90;99.90;;;;;;4988328;28;25131;-66
2021/08/13 00:59:32;;;;;;;25.17;15.60;;;17.90;99.90;;;;;;4987881;28;25112;-66
2021/08/13 01:01:58;;;;;;;30.00;16.15;;;17.80;99.90;;;;;;4988691;28;25069;-66
2021/08/13 01:04:23;;;;;;;20.73;15.80;;;17.80;99.90;;;;;;4989099;28;25139;-65
2021/08/13 01:06:49;;;;;;;26.00;16.65;;;17.80;99.90;;;;;;4991067;28;25108;-67
2021/08/13 01:09:15;;;;;;;21.60;16.58;;;17.90;99.90;;;;;;4986713;28;25068;-67
2021/08/13 01:11:51;;;;;;;25.17;15.70;;;17.80;99.90;;;;;;4989305;28;25072;-67
2021/08/13 01:14:47;;;;;;;27.35;17.38;;;17.70;99.90;;;;;;4990027;28;25060;-66
2021/08/13 01:17:15;;;;;;;26.48;15.90;;;17.70;99.90;;;;;;4988030;28;25168;-68
2021/08/13 01:20:06;;;;;;;28.10;17.05;;;17.90;99.90;;;;;;4989003;28;25088;-67
2021/08/13 01:23:05;;;;;;;30.20;16.20;;;17.90;99.90;;;;;;4989465;28;25111;-70
2021/08/13 01:25:34;;;;;;;29.75;17.45;;;17.80;99.90;;;;;;4988332;28;25108;-67
2021/08/13 01:28:11;;;;;;;26.90;17.70;;;17.70;99.90;;;;;;4988257;28;25054;-66
2021/08/13 01:30:38;;;;;;;32.85;17.48;;;17.60;99.90;;;;;;4987478;28;25066;-67
2021/08/13 01:33:08;;;;;;;27.25;18.52;;;17.60;99.90;;;;;;4986568;28;25053;-66
2021/08/13 01:35:46;;;;;;;31.50;19.55;;;17.60;99.90;;;;;;4988336;28;25119;-67
2021/08/13 01:38:26;;;;;;;27.08;17.95;;;17.50;99.90;;;;;;4987745;28;25148;-67
2021/08/13 01:40:56;;;;;;;29.08;18.92;;;17.60;99.90;;;;;;4987772;28;25157;-67
2021/08/13 01:43:24;;;;;;;28.67;17.75;;;17.60;99.90;;;;;;4986631;28;25065;-66
2021/08/13 01:45:50;;;;;;;26.10;18.92;;;17.60;99.90;;;;;;5000783;28;25066;-67
2021/08/13 01:48:18;;;;;;;31.13;18.10;;;17.60;99.90;;;;;;4988175;28;25054;-67
2021/08/13 01:50:45;;;;;;;28.30;17.80;;;17.60;99.90;;;;;;4988865;28;25106;-67
2021/08/13 01:53:15;;;;;;;30.70;18.80;;;17.60;99.90;;;;;;4987627;28;25134;-67
2021/08/13 01:55:42;;;;;;;31.98;19.88;;;17.60;99.90;;;;;;4990693;28;25095;-66
2021/08/13 01:58:09;;;;;;;31.35;19.35;;;17.50;99.90;;;;;;4991942;28;25063;-66
2021/08/13 02:00:37;;;;;;;32.92;19.88;;;17.40;99.90;;;;;;4989595;28;25073;-66
2021/08/13 02:03:03;;;;;;;34.28;20.23;;;17.50;99.90;;;;;;4991190;28;25156;-65
2021/08/13 02:05:32;;;;;;;32.47;21.17;;;17.50;99.90;;;;;;4990395;28;25068;-67
2021/08/13 02:07:59;;;;;;;33.88;21.15;;;17.50;99.90;;;;;;4987619;28;25065;-68
2021/08/13 02:10:26;;;;;;;37.42;22.83;;;17.50;99.90;;;;;;4991039;28;25099;-68
2021/08/13 02:12:51;;;;;;;35.45;22.77;;;17.50;99.90;;;;;;4988602;28;25088;-67
2021/08/13 02:15:18;;;;;;;31.58;21.85;;;17.60;99.90;;;;;;4986878;28;25055;-67
2021/08/13 02:18:06;;;;;;;33.63;21.23;;;17.60;99.90;;;;;;4988128;28;25084;-67
2021/08/13 02:20:35;;;;;;;34.17;20.02;;;17.60;99.90;;;;;;4988782;28;25100;-65
2021/08/13 02:23:00;;;;;;;33.03;21.88;;;17.60;99.90;;;;;;4989303;28;25086;-66
2021/08/13 02:25:26;;;;;;;37.97;21.25;;;17.60;99.90;;;;;;4988963;28;25102;-69
2021/08/13 02:27:52;;;;;;;34.13;20.55;;;17.60;99.90;;;;;;4987230;28;25142;-66
2021/08/13 02:30:18;;;;;;;31.70;21.08;;;17.60;99.90;;;;;;4990809;28;25070;-67
2021/08/13 02:32:45;;;;;;;36.20;21.40;;;17.60;99.90;;;;;;4994164;28;25068;-66
2021/08/13 02:35:11;;;;;;;35.17;22.13;;;17.70;99.90;;;;;;5000664;28;25094;-68
2021/08/13 02:37:48;;;;;;;32.92;21.35;;;17.70;99.90;;;;;;4997003;28;25094;-67
2021/08/13 02:40:18;;;;;;;36.53;22.55;;;17.60;99.90;;;;;;4982370;28;25074;-67
2021/08/13 02:43:01;;;;;;;40.55;22.88;;;17.50;99.90;;;;;;4991234;28;25056;-68
2021/08/13 02:45:30;;;;;;;34.97;21.48;;;17.30;99.90;;;;;;4990367;28;25109;-67
2021/08/13 02:47:59;;;;;;;35.97;21.60;;;17.30;99.90;;;;;;4987334;28;25114;-67
2021/08/13 02:50:28;;;;;;;37.35;21.27;;;17.40;99.90;;;;;;4986135;28;25096;-67
2021/08/13 02:52:58;;;;;;;33.03;20.83;;;17.40;99.90;;;;;;4986791;28;25057;-68
2021/08/13 02:55:35;;;;;;;33.22;21.13;;;17.40;99.90;;;;;;4984099;28;25064;-67
2021/08/13 02:58:02;;;;;;;31.10;19.73;;;17.30;99.90;;;;;;4982276;28;25128;-67
2021/08/13 03:00:28;;;;;;;35.17;19.90;;;17.20;99.90;;;;;;4985086;28;25086;-66
2021/08/13 03:02:55;;;;;;;27.13;18.30;;;17.20;99.90;;;;;;4987981;28;25141;-67
2021/08/13 03:05:22;;;;;;;31.45;18.95;;;17.20;99.90;;;;;;4988273;28;25171;-66
2021/08/13 03:07:49;;;;;;;29.60;17.50;;;17.10;99.90;;;;;;4989717;28;25067;-67
2021/08/13 03:10:16;;;;;;;26.42;17.65;;;17.10;99.90;;;;;;4982193;28;25069;-66
2021/08/13 03:12:42;;;;;;;27.85;18.35;;;17.00;99.90;;;;;;4988675;28;25077;-66
2021/08/13 03:15:09;;;;;;;29.75;16.92;;;17.00;99.90;;;;;;4987678;28;25053;-68
2021/08/13 03:17:35;;;;;;;26.85;15.90;;;16.90;99.90;;;;;;4994716;28;25095;-66
2021/08/13 03:20:05;;;;;;;24.02;14.65;;;16.90;99.90;;;;;;4999521;28;25074;-67
2021/08/13 03:22:31;;;;;;;22.48;15.18;;;16.90;99.90;;;;;;4999239;28;25063;-67
2021/08/13 03:24:58;;;;;;;20.63;15.13;;;16.90;99.90;;;;;;4992733;28;25127;-68
2021/08/13 03:27:23;;;;;;;20.45;13.57;;;16.90;99.90;;;;;;4987113;28;25139;-67
2021/08/13 03:29:49;;;;;;;20.98;13.68;;;16.90;99.90;;;;;;4987697;28;25057;-66
2021/08/13 03:32:18;;;;;;;20.52;13.57;;;16.90;99.90;;;;;;4987594;28;25150;-67
2021/08/13 03:34:44;;;;;;;22.55;14.07;;;16.90;99.90;;;;;;4987261;28;25068;-66
2021/08/13 03:37:09;;;;;;;23.27;13.25;;;16.90;99.90;;;;;;4986567;28;25077;-67
2021/08/13 03:39:35;;;;;;;21.98;13.90;;;16.90;99.90;;;;;;4987488;28;25163;-66
2021/08/13 03:42:01;;;;;;;18.60;13.77;;;16.80;99.90;;;;;;4978883;28;24710;-67
2021/08/13 03:44:26;;;;;;;22.38;12.82;;;16.80;99.90;;;;;;4985299;28;25093;-66
2021/08/13 03:46:52;;;;;;;23.13;14.32;;;16.90;99.90;;;;;;5000943;28;25075;-66
2021/08/13 03:49:18;;;;;;;19.25;13.40;;;16.80;99.90;;;;;;4986670;28;25072;-66
2021/08/13 03:51:43;;;;;;;19.25;13.88;;;16.80;99.90;;;;;;4987259;28;25059;-67
2021/08/13 03:54:09;;;;;;;19.40;13.45;;;16.80;99.90;;;;;;4987159;28;25078;-66
2021/08/13 03:56:35;;;;;;;19.15;14.40;;;16.90;99.90;;;;;;4986252;28;25151;-67
2021/08/13 03:59:00;;;;;;;24.25;14.10;;;17.00;99.90;;;;;;4986786;28;25111;-67
2021/08/13 04:01:26;;;;;;;20.80;13.38;;;16.90;99.90;;;;;;4986276;28;25082;-66
2021/08/13 04:03:52;;;;;;;19.92;14.38;;;17.00;99.90;;;;;;4991661;28;25059;-66
2021/08/13 04:06:18;;;;;;;22.80;14.43;;;17.00;99.90;;;;;;4986605;28;25099;-69
2021/08/13 04:08:44;;;;;;;25.55;14.55;;;17.00;99.90;;;;;;4985507;28;25136;-68
2021/08/13 04:11:10;;;;;;;21.33;13.70;;;17.00;99.90;;;;;;4989577;28;25057;-66
2021/08/13 04:13:35;;;;;;;22.38;14.52;;;16.90;99.90;;;;;;4988939;28;25143;-67
2021/08/13 04:16:01;;;;;;;22.85;13.60;;;16.90;99.90;;;;;;4989163;28;25111;-67
2021/08/13 04:18:26;;;;;;;23.77;14.10;;;17.00;99.90;;;;;;4989562;28;25078;-66
2021/08/13 04:20:52;;;;;;;24.02;15.15;;;17.00;99.90;;;;;;4984568;28;25110;-67
2021/08/13 04:23:17;;;;;;;20.10;14.20;;;16.90;99.90;;;;;;4989888;28;25151;-66
2021/08/13 04:25:43;;;;;;;23.88;15.32;;;16.90;99.90;;;;;;4989416;28;25058;-68
2021/08/13 04:28:09;;;;;;;20.70;14.35;;;16.80;99.90;;;;;;4989252;28;25084;-66
2021/08/13 04:30:35;;;;;;;21.17;14.32;;;16.80;99.90;;;;;;4989071;28;25092;-67
2021/08/13 04:33:07;;;;;;;20.63;13.27;;;16.90;99.90;;;;;;4990748;28;25107;-67
2021/08/13 04:35:32;;;;;;;20.63;14.07;;;16.80;99.90;;;;;;4989658;28;25102;-66
2021/08/13 04:37:58;;;;;;;21.08;13.27;;;16.80;99.90;;;;;;4988393;28;25079;-66
2021/08/13 04:40:23;;;;;;;24.05;13.00;;;16.90;99.90;;;;;;4989745;28;25104;-67
2021/08/13 04:42:49;;;;;;;18.63;12.68;;;16.90;99.90;;;;;;5006241;28;25087;-67
2021/08/13 04:45:15;;;;;;;19.58;13.25;;;16.90;99.90;;;;;;4986575;28;25086;-66
2021/08/13 04:47:40;;;;;;;20.60;13.23;;;16.90;99.90;;;;;;4987704;28;25054;-67
2021/08/13 04:50:07;;;;;;;21.02;12.93;;;16.90;99.90;;;;;;4988491;28;25060;-67
2021/08/13 04:52:40;;;;;;;22.35;13.15;;;16.90;99.90;;;;;;4989966;28;24828;-67
2021/08/13 04:55:05;;;;;;;22.05;12.55;;;16.90;99.90;;;;;;4990023;28;25109;-67
2021/08/13 04:57:31;;;;;;;19.77;12.00;;;16.90;99.90;;;;;;4988750;28;25096;-66
2021/08/13 04:59:56;;;;;;;19.13;11.68;;;17.00;99.90;;;;;;4988315;28;25152;-67
2021/08/13 05:02:22;;;;;;;16.77;11.90;;;17.00;99.90;;;;;;4988722;28;25107;-66
2021/08/13 05:04:48;;;;;;;16.05;11.60;;;17.10;99.90;;;;;;4988979;28;25116;-67
2021/08/13 05:07:13;;;;;;;19.23;11.77;;;17.10;99.90;;;;;;5004836;28;25027;-67
2021/08/13 05:09:39;;;;;;;21.30;11.43;;;17.20;99.90;;;;;;4988857;28;25089;-66
2021/08/13 05:12:04;;;;;;;27.00;11.50;;;17.20;99.90;;;;;;4988336;28;25162;-67
2021/08/13 05:14:30;;;;;;;19.02;11.07;;;17.20;99.90;;;;;;5005984;28;25117;-67
2021/08/13 05:16:56;;;;;;;15.45;11.60;;;17.30;99.90;;;;;;4984939;28;25074;-68
2021/08/13 05:19:21;;;;;;;15.65;10.45;;;17.30;99.90;;;;;;4991720;28;25096;-67
2021/08/13 05:21:48;;;;;;;14.68;10.27;;;17.30;99.90;;;;;;4987748;28;25115;-68
2021/08/13 05:24:13;;;;;;;19.80;10.82;;;17.30;99.90;;;;;;4988530;28;25120;-67
2021/08/13 05:26:41;;;;;;;15.07;10.32;;;17.30;99.90;;;;;;4987316;28;25127;-67
2021/08/13 05:29:06;;;;;;;18.33;10.93;;;17.30;99.90;;;;;;5003249;28;25062;-66
2021/08/13 05:31:32;;;;;;;17.92;10.63;;;17.40;99.90;;;;;;4990135;28;25128;-66
2021/08/13 05:33:57;;;;;;;17.60;10.40;;;17.40;99.90;;;;;;4990461;28;25066;-67
2021/08/13 05:36:24;;;;;;;16.33;10.50;;;17.50;99.90;;;;;;4993221;28;25072;-66
2021/08/13 05:38:50;;;;;;;17.95;10.25;;;17.50;99.90;;;;;;4989524;28;25112;-67
2021/08/13 05:41:15;;;;;;;20.55;10.82;;;17.50;99.90;;;;;;4992939;28;25055;-66
2021/08/13 05:43:41;;;;;;;22.00;10.38;;;17.50;99.90;;;;;;4996896;28;25054;-66
2021/08/13 05:46:06;;;;;;;12.85;9.68;;;17.50;99.90;;;;;;4994617;28;25070;-66
2021/08/13 05:48:32;;;;;;;16.85;9.43;;;17.60;99.90;;;;;;4993873;28;25092;-66
2021/08/13 05:50:57;;;;;;;17.63;9.68;;;17.60;99.90;;;;;;4999430;28;25102;-66
2021/08/13 05:53:23;;;;;;;14.23;9.48;;;17.60;99.90;;;;;;4998603;28;25099;-65
2021/08/13 05:55:48;;;;;;;12.52;8.48;;;17.60;99.90;;;;;;4989491;28;25065;-67
2021/08/13 05:58:14;;;;;;;14.45;9.57;;;17.70;99.90;;;;;;4989911;28;25075;-66
2021/08/13 06:00:39;;;;;;;14.25;8.65;;;17.70;99.90;;;;;;4987116;28;25081;-67
2021/08/13 06:03:06;;;;;;;18.05;8.68;;;17.70;99.90;;;;;;4987567;28;25180;-67
2021/08/13 06:05:31;;;;;;;16.55;9.48;;;17.60;99.90;;;;;;4987377;28;25070;-67
2021/08/13 06:07:57;;;;;;;16.50;8.30;;;17.70;99.90;;;;;;4987362;28;25119;-66
2021/08/13 06:10:24;;;;;;;13.57;9.05;;;17.70;99.90;;;;;;4987186;28;25109;-66
2021/08/13 06:12:50;;;;;;;12.43;8.43;;;17.70;99.90;;;;;;4994469;28;25060;-68
2021/08/13 06:15:16;;;;;;;13.13;8.75;;;17.70;99.90;;;;;;4985896;28;25072;-69
2021/08/13 06:17:42;;;;;;;15.98;9.55;;;17.70;99.90;;;;;;4985603;28;25125;-67
2021/08/13 06:20:10;;;;;;;15.77;9.27;;;17.90;99.90;;;;;;4988743;28;25087;-68
2021/08/13 06:22:35;;;;;;;12.82;9.18;;;18.00;99.90;;;;;;4995181;28;25069;-67
2021/08/13 06:25:01;;;;;;;17.65;8.93;;;18.00;99.90;;;;;;4998154;28;25083;-68
2021/08/13 06:27:27;;;;;;;20.02;9.57;;;18.00;99.90;;;;;;4989134;28;25097;-68
2021/08/13 06:29:53;;;;;;;17.40;8.95;;;17.90;99.90;;;;;;5005449;28;25066;-67
2021/08/13 06:32:19;;;;;;;15.55;8.68;;;17.90;99.90;;;;;;4985951;28;25145;-67
2021/08/13 06:34:45;;;;;;;10.70;8.32;;;18.00;99.90;;;;;;4985064;28;25131;-67
2021/08/13 06:37:11;;;;;;;15.93;9.50;;;18.00;99.90;;;;;;4995330;28;25071;-68
2021/08/13 06:39:37;;;;;;;18.95;9.68;;;18.00;99.90;;;;;;5002451;28;25057;-67
2021/08/13 06:42:05;;;;;;;14.63;8.82;;;18.00;99.90;;;;;;4998828;28;25074;-68
2021/08/13 06:44:30;;;;;;;14.60;9.68;;;18.00;99.90;;;;;;5011440;28;25055;-67
2021/08/13 06:46:56;;;;;;;15.23;9.55;;;17.90;99.90;;;;;;5003876;28;25049;-67
2021/08/13 06:49:21;;;;;;;17.08;9.75;;;18.00;99.90;;;;;;5001235;28;25101;-68
2021/08/13 06:51:47;;;;;;;15.10;8.85;;;18.10;99.90;;;;;;4992099;28;25136;-68
2021/08/13 06:54:13;;;;;;;15.52;9.68;;;18.10;99.90;;;;;;4987303;28;25064;-65
2021/08/13 06:56:38;;;;;;;13.82;9.18;;;18.20;99.90;;;;;;4987902;28;25155;-68
2021/08/13 06:59:04;;;;;;;18.42;10.57;;;18.20;99.90;;;;;;4987071;28;25101;-68
2021/08/13 07:01:29;;;;;;;17.17;9.35;;;18.20;99.90;;;;;;4987470;28;25090;-68
2021/08/13 07:03:55;;;;;;;16.17;9.65;;;18.40;99.90;;;;;;4987521;28;25152;-68
2021/08/13 07:06:20;;;;;;;19.92;10.10;;;18.40;99.90;;;;;;4995852;28;25067;-68
2021/08/13 07:08:46;;;;;;;17.27;9.98;;;18.60;99.90;;;;;;4989333;28;25064;-68
2021/08/13 07:11:11;;;;;;;20.13;10.90;;;18.50;99.90;;;;;;4989581;28;25073;-68
2021/08/13 07:13:37;;;;;;;14.98;9.88;;;18.40;99.90;;;;;;4987332;28;25065;-67
2021/08/13 07:16:03;;;;;;;18.83;10.40;;;18.50;99.90;;;;;;4987262;28;25071;-68
2021/08/13 07:18:28;;;;;;;15.90;10.40;;;18.60;99.90;;;;;;5000433;28;25055;-68
2021/08/13 07:20:54;;;;;;;15.60;10.40;;;18.60;99.90;;;;;;4987312;28;25086;-68
2021/08/13 07:23:19;;;;;;;15.95;10.80;;;18.60;99.90;;;;;;4987749;28;25078;-68
2021/08/13 07:25:45;;;;;;;14.35;10.15;;;18.70;99.90;;;;;;5002160;28;25120;-70
2021/08/13 07:28:10;;;;;;;18.73;10.35;;;18.80;99.90;;;;;;4987131;28;25089;-70
2021/08/13 07:30:36;;;;;;;17.92;9.88;;;18.90;99.90;;;;;;5000602;28;25072;-72
2021/08/13 07:33:02;;;;;;;20.17;9.48;;;19.10;99.90;;;;;;4993683;28;25074;-68
2021/08/13 07:35:28;;;;;;;16.17;8.93;;;19.20;99.90;;;;;;4995954;28;25069;-68
2021/08/13 07:37:55;;;;;;;15.23;8.45;;;19.10;99.90;;;;;;4987532;28;25135;-67
2021/08/13 07:40:20;;;;;;;20.73;8.73;;;19.20;99.90;;;;;;5000346;28;25142;-69
2021/08/13 07:42:46;;;;;;;13.73;7.85;;;19.20;99.90;;;;;;4988065;28;25056;-68
2021/08/13 07:45:12;;;;;;;16.83;7.55;;;19.30;99.90;;;;;;4987727;28;25098;-67
2021/08/13 07:47:39;;;;;;;17.30;7.88;;;19.50;99.90;;;;;;4990857;28;25149;-67
2021/08/13 07:50:05;;;;;;;14.35;6.88;;;19.70;99.90;;;;;;4990670;28;25077;-68
2021/08/13 07:52:32;;;;;;;15.30;7.10;;;19.60;99.90;;;;;;4992996;28;25050;-66
2021/08/13 07:54:58;;;;;;;18.92;7.32;;;19.50;99.90;;;;;;4987647;28;25073;-67
2021/08/13 07:57:25;;;;;;;13.38;6.18;;;19.40;99.90;;;;;;4991482;28;25075;-66
2021/08/13 07:59:50;;;;;;;11.13;6.05;;;19.60;99.90;;;;;;4992162;28;25143;-68
2021/08/13 08:02:16;;;;;;;15.30;6.22;;;19.60;99.90;;;;;;4992647;28;25093;-67
2021/08/13 08:04:42;;;;;;;11.68;5.38;;;19.60;99.90;;;;;;5007534;28;25053;-69
2021/08/13 08:07:08;;;;;;;11.77;5.50;;;19.60;99.90;;;;;;4998570;28;25116;-67
2021/08/13 08:09:33;;;;;;;10.10;5.32;;;19.40;99.90;;;;;;4990744;28;25064;-68
2021/08/13 08:11:59;;;;;;;10.57;4.88;;;19.40;99.90;;;;;;4989993;28;25054;-67
2021/08/13 08:14:24;;;;;;;11.30;4.63;;;19.30;99.90;;;;;;4990352;28;25069;-68
2021/08/13 08:16:50;;;;;;;12.80;5.07;;;19.30;99.90;;;;;;4990562;28;25060;-66
2021/08/13 08:19:16;;;;;;;12.43;5.75;;;19.40;99.90;;;;;;4989738;28;25119;-69
2021/08/13 08:21:43;;;;;;;14.30;5.28;;;19.40;99.90;;;;;;4991316;28;25064;-68
2021/08/13 08:24:10;;;;;;;10.80;6.18;;;19.50;99.90;;;;;;4999181;28;25046;-68
2021/08/13 08:26:36;;;;;;;15.18;5.10;;;19.50;99.90;;;;;;4998765;28;25080;-69
2021/08/13 08:29:02;;;;;;;11.65;5.20;;;19.40;99.90;;;;;;4995622;28;25075;-68
2021/08/13 08:31:27;;;;;;;16.23;5.60;;;19.50;99.90;;;;;;5006645;28;25071;-68
2021/08/13 08:33:54;;;;;;;13.48;4.43;;;19.70;99.90;;;;;;4995025;28;26149;-68
2021/08/13 08:36:20;;;;;;;9.75;4.55;;;19.80;99.90;;;;;;4999247;28;25097;-68
2021/08/13 08:38:45;;;;;;;9.00;4.05;;;20.00;99.90;;;;;;4995596;28;25089;-68
2021/08/13 08:41:12;;;;;;;11.55;4.25;;;20.30;99.90;;;;;;4990181;28;25167;-67
2021/08/13 08:43:37;;;;;;;9.10;4.20;;;20.50;99.90;;;;;;4990296;28;25069;-69
2021/08/13 08:46:04;;;;;;;9.32;4.35;;;20.50;99.90;;;;;;4989109;28;25057;-67
2021/08/13 08:48:36;;;;;;;13.32;4.70;;;20.40;99.90;;;;;;4988219;28;25113;-69
2021/08/13 08:51:02;;;;;;;11.70;5.18;;;20.20;99.90;;;;;;4989562;28;25089;-68
2021/08/13 08:53:29;;;;;;;7.55;3.72;;;20.30;99.90;;;;;;4990138;28;25071;-68
2021/08/13 08:55:57;;;;;;;12.77;3.97;;;20.40;99.90;;;;;;4992221;28;25133;-68
2021/08/13 08:58:24;;;;;;;7.15;4.13;;;20.70;99.90;;;;;;4989224;28;25068;-69
2021/08/13 09:00:50;;;;;;;6.03;4.15;;;20.70;99.90;;;;;;4991808;28;25095;-68
2021/08/13 09:03:19;;;;;;;8.82;3.88;;;20.70;99.90;;;;;;4991076;28;25095;-69
2021/08/13 09:05:46;;;;;;;10.98;4.13;;;20.80;99.90;;;;;;4990791;28;25128;-68
2021/08/13 09:08:12;;;;;;;12.93;3.08;;;21.10;99.90;;;;;;4990665;28;25129;-70
2021/08/13 09:10:40;;;;;;;10.40;3.25;;;21.10;99.90;;;;;;5003469;28;25098;-70
2021/08/13 09:13:08;;;;;;;10.27;3.92;;;21.20;99.90;;;;;;5000634;28;25048;-72
2021/08/13 09:15:37;;;;;;;12.43;3.65;;;21.00;99.90;;;;;;4998360;28;25053;-67
2021/08/13 09:18:20;;;;;;;9.73;3.88;;;20.90;99.90;;;;;;4994776;28;25072;-69
2021/08/13 09:20:47;;;;;;;;;;;21.10;99.90;;;;;;4991392;28;25052;-69
2021/08/13 09:23:36;;;;;;;5.35;3.20;;;21.30;99.90;;;;;;4991218;28;25126;-69
2021/08/13 09:26:14;;;;;;;12.88;4.18;;;21.40;99.90;;;;;;4999052;28;25094;-69
2021/08/13 09:28:46;;;;;;;13.02;4.03;;;21.30;99.90;;;;;;4984910;28;25124;-68
2021/08/13 09:31:18;;;;;;;11.32;3.60;;;21.10;99.90;;;;;;4989737;28;25091;-69
2021/08/13 09:33:47;;;;;;;9.05;3.72;;;20.90;99.90;;;;;;4983260;28;25068;-69
2021/08/13 09:36:14;;;;;;;9.10;4.00;;;20.80;99.90;;;;;;4981671;28;25064;-70
2021/08/13 09:38:40;;;;;;;6.63;3.88;;;20.90;99.90;;;;;;4997052;28;25062;-70
2021/08/13 09:41:08;;;;;;;8.60;3.97;;;20.70;99.90;;;;;;4975633;28;25050;-69
2021/08/13 09:43:53;;;;;;;9.18;3.88;;;20.70;99.90;;;;;;4994600;28;25099;-70
2021/08/13 09:46:19;;;;;;;10.77;3.78;;;20.90;99.90;;;;;;5003613;28;25061;-68
2021/08/13 09:48:45;;;;;;;9.55;3.63;;;21.00;99.90;;;;;;4990390;28;25090;-70
2021/08/13 09:51:34;;;;;;;8.50;3.15;;;21.00;99.90;;;;;;5008487;28;25104;-68
2021/08/13 09:54:02;;;;;;;13.93;4.20;;;21.10;99.90;;;;;;4989593;28;25140;-68
2021/08/13 09:56:32;;;;;;;6.05;3.00;;;20.90;99.90;;;;;;4989261;28;25086;-68
2021/08/13 09:59:08;;;;;;;8.50;2.80;;;21.00;99.90;;;;;;4996704;28;25073;-65
2021/08/13 10:01:47;;;;;;;7.68;2.58;;;21.10;99.90;;;;;;5023607;28;25052;-70
2021/08/13 10:04:14;;;;;;;8.85;3.63;;;21.20;99.90;;;;;;5001357;28;25083;-72
2021/08/13 10:06:41;;;;;;;9.27;2.67;;;21.40;99.90;;;;;;5004460;28;25070;-68
2021/08/13 10:09:22;;;;;;;7.10;2.45;;;21.70;99.90;;;;;;4999173;28;25056;-70
2021/08/13 10:12:02;;;;;;;9.23;2.70;;;22.00;99.90;;;;;;4990631;28;25106;-69
2021/08/13 10:14:32;;;;;;;8.38;2.95;;;22.00;99.90;;;;;;4991698;28;25058;-71
2021/08/13 10:17:19;;;;;;;8.95;3.25;;;22.10;99.90;;;;;;5012380;28;25069;-69
2021/08/13 10:19:48;;;;;;;7.63;2.67;;;22.20;99.90;;;;;;4994691;28;25097;-70
2021/08/13 10:22:15;;;;;;;8.95;2.83;;;22.30;99.90;;;;;;5008048;28;25152;-70
2021/08/13 10:24:45;;;;;;;6.13;2.50;;;22.10;99.90;;;;;;4998994;28;25051;-69
2021/08/13 10:27:12;;;;;;;7.53;2.60;;;22.00;99.90;;;;;;4990658;28;25126;-68
2021/08/13 10:29:38;;;;;;;6.43;2.53;;;21.70;99.90;;;;;;4989219;28;25052;-69
2021/08/13 10:32:04;;;;;;;9.80;3.25;;;21.80;99.90;;;;;;4985259;28;25121;-68
2021/08/13 10:34:30;;;;;;;7.68;2.78;;;21.70;99.90;;;;;;5000859;28;25082;-68
2021/08/13 10:36:56;;;;;;;9.80;3.53;;;21.70;99.90;;;;;;5006200;28;25180;-68
2021/08/13 10:39:26;;;;;;;8.27;2.60;;;21.90;99.90;;;;;;5009379;28;25152;-70
2021/08/13 10:41:58;;;;;;;12.82;2.90;;;21.90;99.90;;;;;;4996131;28;25069;-70
2021/08/13 10:44:28;;;;;;;7.57;2.92;;;21.90;99.90;;;;;;4986663;28;25075;-70
2021/08/13 10:46:57;;;;;;;8.25;2.85;;;22.00;99.90;;;;;;5000726;28;25053;-70
2021/08/13 10:49:25;;;;;;;8.65;2.70;;;22.00;99.90;;;;;;4985875;28;25066;-68
2021/08/13 10:52:01;;;;;;;9.75;2.40;;;21.80;99.90;;;;;;4987375;28;25142;-70
2021/08/13 10:54:40;;;;;;;11.63;2.88;;;21.40;99.90;;;;;;4987932;28;25118;-69
2021/08/13 10:57:06;;;;;;;9.20;2.90;;;21.20;99.90;;;;;;4981451;28;25075;-69
2021/08/13 10:59:41;;;;;;;10.52;3.08;;;21.10;99.90;;;;;;4988178;28;25075;-70
2021/08/13 11:02:18;;;;;;;11.43;2.83;;;21.30;99.90;;;;;;4994045;28;25059;-69
2021/08/13 11:04:47;;;;;;;9.13;2.97;;;21.40;99.90;;;;;;4990296;28;25070;-70
2021/08/13 11:07:13;;;;;;;11.82;2.63;;;21.40;99.90;;;;;;4993256;28;25105;-70
2021/08/13 11:09:41;;;;;;;8.30;2.60;;;21.50;99.90;;;;;;5000946;28;25174;-72
2021/08/13 11:12:12;;;;;;;15.38;2.88;;;21.70;99.90;;;;;;4997032;28;25115;-69
2021/08/13 11:14:50;;;;;;;10.10;2.30;;;21.40;99.90;;;;;;4999115;28;24971;-70
2021/08/13 11:17:39;;;;;;;9.65;2.95;;;21.40;99.90;;;;;;4981845;28;25066;-70
2021/08/13 11:20:08;;;;;;;9.50;2.72;;;21.50;99.90;;;;;;4983032;28;25093;-68
2021/08/13 11:22:37;;;;;;;13.13;3.00;;;21.60;99.90;;;;;;4993192;28;25077;-69
2021/08/13 11:25:13;;;;;;;11.60;2.80;;;21.60;99.90;;;;;;5008486;28;25070;-72
2021/08/13 11:27:39;;;;;;;8.32;2.55;;;21.60;99.90;;;;;;5009722;28;25067;-72
2021/08/13 11:30:42;;;;;;;10.20;3.15;;;21.70;99.90;;;;;;5009448;28;25054;-69
2021/08/13 11:33:25;;;;;;;16.20;3.63;;;21.80;99.90;;;;;;4992785;28;25091;-71
2021/08/13 11:35:54;;;;;;;10.68;2.78;;;21.80;99.90;;;;;;5020370;28;25067;-71
2021/08/13 11:38:49;;;;;;;15.65;2.92;;;21.80;99.90;;;;;;4992129;28;25080;-71
2021/08/13 11:41:21;;;;;;;11.80;2.80;;;21.70;99.90;;;;;;4999179;28;25051;-68
2021/08/13 11:43:58;;;;;;;16.15;2.65;;;21.80;99.90;;;;;;5004720;28;25094;-73
2021/08/13 11:46:32;;;;;;;13.13;3.53;;;21.90;99.90;;;;;;4990669;28;25055;-70
2021/08/13 11:49:00;;;;;;;14.88;3.15;;;21.90;99.90;;;;;;4989728;28;25063;-70
2021/08/13 11:51:26;;;;;;;8.32;2.60;;;21.90;99.90;;;;;;4992144;28;25068;-69
2021/08/13 11:53:53;;;;;;;12.32;3.13;;;21.90;99.90;;;;;;4992303;28;25074;-71
2021/08/13 11:56:27;;;;;;;12.73;3.25;;;22.30;99.90;;;;;;5005883;28;25074;-70
2021/08/13 11:59:01;;;;;;;11.73;3.42;;;22.60;99.90;;;;;;5008545;28;25079;-69
2021/08/13 12:01:27;;;;;;;8.88;2.50;;;22.70;99.90;;;;;;4991271;28;25133;-70
2021/08/13 12:03:53;;;;;;;11.93;2.72;;;22.60;99.90;;;;;;4992102;28;25075;-72
2021/08/13 12:06:19;;;;;;;8.90;2.70;;;22.40;99.90;;;;;;4993869;28;25083;-70
2021/08/13 12:08:46;;;;;;;9.63;3.08;;;22.40;99.90;;;;;;5004026;28;25140;-69
2021/08/13 12:11:13;;;;;;;11.52;2.53;;;22.40;99.90;;;;;;4993601;28;25063;-71
2021/08/13 12:13:39;;;;;;;9.63;2.60;;;22.50;99.90;;;;;;4997654;28;25065;-72
2021/08/13 12:16:05;;;;;;;7.47;2.10;;;22.50;99.90;;;;;;5007818;28;25108;-70
2021/08/13 12:18:32;;;;;;;10.57;2.35;;;22.50;99.90;;;;;;4991838;28;25064;-69
2021/08/13 12:21:05;;;;;;;8.90;2.65;;;22.40;99.90;;;;;;4997884;28;25124;-70
2021/08/13 12:23:31;;;;;;;14.30;2.80;;;22.40;99.90;;;;;;4992061;28;25059;-71
2021/08/13 12:26:02;;;;;;;12.68;2.38;;;22.30;99.90;;;;;;4990748;28;25082;-70
2021/08/13 12:28:33;;;;;;;10.50;2.83;;;22.20;99.90;;;;;;4990451;28;25094;-69
2021/08/13 12:31:09;;;;;;;8.10;2.40;;;22.10;99.90;;;;;;4998639;28;25083;-73
2021/08/13 12:33:35;;;;;;;16.73;2.70;;;22.00;99.90;;;;;;5003193;28;25056;-72
2021/08/13 12:36:02;;;;;;;15.18;3.63;;;21.90;99.90;;;;;;5003798;28;25073;-69
2021/08/13 12:38:37;;;;;;;10.30;2.83;;;21.90;99.90;;;;;;4997055;28;25068;-71